createdAt,value
2019-05-10T00:02:53.649Z,1.10
2019-05-10T00:07:16.418Z,0.95
2019-05-10T00:11:42.305Z,0.95
2019-05-10T00:15:46.981Z,1.63
2019-05-10T00:19:51.853Z,1.07
2019-05-10T00:23:56.446Z,0.90
2019-05-10T00:28:00.977Z,1.57
2019-05-10T00:32:05.666Z,0.90
2019-05-10T00:36:10.194Z,2.30
2019-05-10T00:40:14.715Z,0.98
2019-05-10T00:44:19.238Z,0.80
2019-05-10T00:48:23.769Z,0.88
2019-05-10T00:52:28.298Z,0.70
2019-05-10T00:56:32.876Z,0.80
2019-05-10T01:00:37.437Z,1.00
2019-05-10T01:04:41.999Z,2.60
2019-05-10T01:08:46.537Z,0.90
2019-05-10T01:12:51.077Z,0.60
2019-05-10T01:16:55.601Z,0.88
2019-05-10T01:21:00.122Z,0.60
2019-05-10T01:25:06.474Z,0.70
2019-05-10T01:29:10.993Z,0.68
2019-05-10T01:33:15.531Z,1.60
2019-05-10T01:37:20.378Z,0.75
2019-05-10T01:41:24.892Z,0.90
2019-05-10T01:45:29.421Z,0.80
2019-05-10T01:49:33.962Z,0.80
2019-05-10T01:53:38.843Z,0.78
2019-05-10T01:57:43.394Z,0.50
2019-05-10T02:01:47.930Z,0.82
2019-05-10T02:05:52.537Z,1.10
2019-05-10T02:09:57.139Z,0.70
2019-05-10T02:14:01.665Z,0.78
2019-05-10T02:18:06.186Z,0.70
2019-05-10T02:22:10.713Z,0.80
2019-05-10T02:26:15.274Z,0.70
2019-05-10T02:30:20.275Z,0.62
2019-05-10T02:34:24.842Z,0.70
2019-05-10T02:38:29.412Z,1.35
2019-05-10T02:42:34.002Z,0.65
2019-05-10T02:46:38.530Z,0.70
2019-05-10T02:50:43.059Z,1.15
2019-05-10T02:54:47.752Z,1.00
2019-05-10T02:58:55.351Z,0.78
2019-05-10T03:03:00.135Z,0.50
2019-05-10T03:07:05.890Z,0.80
2019-05-10T03:11:13.594Z,0.60
2019-05-10T03:15:18.682Z,0.40
2019-05-10T03:19:23.251Z,0.65
2019-05-10T03:23:28.806Z,0.70
2019-05-10T03:27:34.255Z,0.70
2019-05-10T03:31:38.946Z,0.70
2019-05-10T03:35:43.691Z,0.70
2019-05-10T03:39:48.418Z,0.85
2019-05-10T03:43:52.930Z,0.60
2019-05-10T03:47:57.462Z,0.53
2019-05-10T03:52:02.009Z,1.00
2019-05-10T03:56:06.564Z,0.60
2019-05-10T04:00:12.299Z,0.70
2019-05-10T04:04:17.086Z,0.68
2019-05-10T04:08:21.649Z,0.70
2019-05-10T04:12:26.232Z,0.70
2019-05-10T04:16:30.761Z,2.55
2019-05-10T04:20:35.290Z,1.05
2019-05-10T04:24:39.818Z,1.25
2019-05-10T04:28:44.350Z,0.78
2019-05-10T04:32:48.931Z,0.60
2019-05-10T04:36:53.480Z,0.70
2019-05-10T04:40:58.845Z,1.23
2019-05-10T04:45:03.979Z,1.07
2019-05-10T04:49:08.548Z,1.60
2019-05-10T04:53:13.070Z,1.02
2019-05-10T04:57:17.617Z,1.07
2019-05-10T05:01:22.147Z,1.32
2019-05-10T05:05:26.716Z,0.80
2019-05-10T05:09:31.318Z,0.70
2019-05-10T05:13:36.125Z,0.85
2019-05-10T05:17:40.664Z,0.60
2019-05-10T05:21:45.257Z,0.78
2019-05-10T05:25:49.765Z,0.65
2019-05-10T05:29:54.286Z,1.37
2019-05-10T05:33:59.108Z,0.65
2019-05-10T05:42:09.534Z,0.60
2019-05-10T05:46:14.749Z,0.57
2019-05-10T05:50:19.834Z,0.95
2019-05-10T05:54:24.450Z,0.70
2019-05-10T05:58:29.033Z,1.05
2019-05-10T06:02:33.546Z,2.20
2019-05-10T06:06:38.073Z,2.17
2019-05-10T06:10:44.018Z,5.83
2019-05-10T06:14:50.179Z,2.87
2019-05-10T06:18:55.386Z,4.62
2019-05-10T06:23:06.358Z,2.67
2019-05-10T06:31:09.872Z,3.20
2019-05-10T06:35:19.583Z,3.65
2019-05-10T06:39:20.821Z,3.20
2019-05-10T06:43:25.341Z,3.20
2019-05-10T06:47:29.878Z,2.05
2019-05-10T06:51:34.680Z,1.72
2019-05-10T06:55:39.678Z,2.75
2019-05-10T06:59:44.210Z,1.00
2019-05-10T07:03:48.735Z,3.83
2019-05-10T07:07:53.300Z,0.90
2019-05-10T07:11:57.826Z,2.15
2019-05-10T07:16:02.433Z,2.77
2019-05-10T07:20:08.889Z,3.30
2019-05-10T07:24:18.315Z,5.10
2019-05-10T07:32:24.639Z,9.38
2019-05-10T07:36:30.817Z,5.97
2019-05-10T07:40:35.961Z,9.08
2019-05-10T07:44:41.502Z,6.33
2019-05-10T07:48:52.663Z,6.72
2019-05-10T07:56:56.777Z,5.00
2019-05-10T08:01:02.042Z,4.50
2019-05-10T08:05:10.765Z,8.33
2019-05-10T08:09:13.263Z,5.87
2019-05-10T08:13:21.223Z,5.33
2019-05-10T08:17:24.661Z,4.67
2019-05-10T08:21:29.817Z,3.10
2019-05-10T08:29:42.844Z,2.87
2019-05-10T08:37:52.966Z,4.50
2019-05-10T08:42:04.911Z,4.47
2019-05-10T08:50:26.316Z,2.80
2019-05-10T08:54:13.885Z,4.62
2019-05-10T08:58:21.627Z,5.03
2019-05-10T09:06:30.029Z,5.25
2019-05-10T09:10:34.805Z,5.87
2019-05-10T09:14:39.427Z,8.43
2019-05-10T09:18:50.189Z,10.90
2019-05-10T09:26:56.985Z,6.78
2019-05-10T09:35:09.035Z,4.62
2019-05-10T09:39:17.627Z,8.35
2019-05-10T09:43:21.207Z,5.35
2019-05-10T09:51:30.438Z,4.92
2019-05-10T09:59:38.597Z,6.60
2019-05-10T10:03:44.948Z,3.33
2019-05-10T10:11:57.970Z,3.85
2019-05-10T10:20:02.994Z,4.70
2019-05-10T10:28:19.972Z,3.95
2019-05-10T10:36:27.465Z,3.55
2019-05-10T10:40:35.021Z,3.85
2019-05-10T10:44:38.641Z,4.75
2019-05-10T10:48:43.652Z,2.25
2019-05-10T10:56:53.161Z,4.85
2019-05-10T11:00:57.706Z,2.85
2019-05-10T11:05:02.234Z,2.30
2019-05-10T11:09:08.501Z,5.92
2019-05-10T11:13:18.988Z,11.03
2019-05-10T11:21:23.283Z,5.30
2019-05-10T11:25:29.322Z,5.40
2019-05-10T11:29:33.861Z,5.42
2019-05-10T11:33:41.142Z,5.75
2019-05-10T11:41:53.105Z,7.25
2019-05-10T11:50:06.088Z,5.28
2019-05-10T11:59:04.539Z,2.87
2019-05-10T12:10:26.092Z,2.45
2019-05-10T12:14:30.622Z,5.47
2019-05-10T12:18:36.309Z,10.30
2019-05-10T12:22:47.112Z,7.12
2019-05-10T12:26:36.002Z,2.52
2019-05-10T12:30:52.801Z,14.95
2019-05-10T12:34:57.369Z,4.72
2019-05-10T12:39:01.953Z,7.53
2019-05-10T12:43:06.490Z,5.90
2019-05-10T12:47:11.445Z,3.17
2019-05-10T12:51:16.702Z,4.20
2019-05-10T12:55:21.795Z,2.70
2019-05-10T12:59:29.684Z,2.22
2019-05-10T13:07:37.983Z,3.67
2019-05-10T13:11:42.578Z,2.77
2019-05-10T13:15:47.114Z,4.45
2019-05-10T13:19:52.821Z,2.90
2019-05-10T13:23:58.477Z,5.12
2019-05-10T13:28:03.097Z,6.70
2019-05-10T13:32:07.637Z,7.65
2019-05-10T13:36:12.149Z,10.58
2019-05-10T13:40:17.130Z,18.32
2019-05-10T13:44:21.673Z,11.83
2019-05-10T13:48:26.861Z,4.05
2019-05-10T13:52:38.054Z,12.30
2019-05-10T13:56:44.932Z,5.35
2019-05-10T14:04:47.901Z,4.35
2019-05-10T14:08:52.433Z,4.40
2019-05-10T14:13:02.253Z,5.22
2019-05-10T14:21:06.847Z,5.12
2019-05-10T14:25:11.433Z,3.42
2019-05-10T14:29:15.953Z,4.35
2019-05-10T14:33:20.478Z,3.42
2019-05-10T14:37:25.005Z,8.15
2019-05-10T14:41:29.534Z,3.10
2019-05-10T14:45:34.150Z,3.37
2019-05-10T14:49:42.046Z,3.77
2019-05-10T14:57:48.858Z,6.30
2019-05-10T15:01:53.389Z,5.25
2019-05-10T15:06:01.501Z,3.45
2019-05-10T15:10:05.234Z,5.60
2019-05-10T15:14:10.093Z,3.50
2019-05-10T15:18:14.679Z,7.12
2019-05-10T15:22:23.096Z,5.55
2019-05-10T15:30:29.106Z,3.98
2019-05-10T15:34:33.634Z,3.50
2019-05-10T15:38:40.554Z,13.65
2019-05-10T15:46:48.076Z,4.60
2019-05-10T15:50:52.901Z,5.55
2019-05-10T15:54:57.427Z,5.58
2019-05-10T15:59:02.123Z,5.85
2019-05-10T16:03:06.691Z,3.85
2019-05-10T16:07:14.615Z,4.05
2019-05-10T16:15:22.953Z,5.10
2019-05-10T16:19:27.553Z,4.10
2019-05-10T16:23:32.069Z,5.87
2019-05-10T16:27:41.665Z,8.80
2019-05-10T16:35:49.840Z,6.53
2019-05-10T16:43:58.124Z,4.20
2019-05-10T16:52:08.103Z,6.30
2019-05-10T16:56:13.379Z,7.05
2019-05-10T17:00:19.466Z,3.25
2019-05-10T17:04:24.053Z,6.80
2019-05-10T17:08:30.833Z,4.72
2019-05-10T17:16:38.569Z,8.75
2019-05-10T17:20:45.449Z,4.55
2019-05-10T17:28:52.997Z,5.72
2019-05-10T17:33:03.211Z,11.22
2019-05-10T17:41:07.465Z,5.35
2019-05-10T17:45:12.255Z,6.33
2019-05-10T17:49:18.536Z,6.20
2019-05-10T17:53:24.887Z,6.25
2019-05-10T17:57:29.621Z,6.80
2019-05-10T18:01:34.473Z,8.50
2019-05-10T18:05:41.165Z,5.67
2019-05-10T18:09:46.816Z,4.58
2019-05-10T18:13:51.430Z,5.62
2019-05-10T18:17:57.415Z,6.87
2019-05-10T18:26:07.609Z,4.30
2019-05-10T18:30:13.482Z,5.55
2019-05-10T18:34:18.277Z,7.85
2019-05-10T18:38:22.874Z,4.83
2019-05-10T18:42:28.021Z,4.97
2019-05-10T18:46:34.946Z,5.15
2019-05-10T18:50:44.520Z,5.53
2019-05-10T18:58:49.479Z,9.18
2019-05-10T19:02:55.748Z,5.92
2019-05-10T19:07:09.975Z,7.25
2019-05-10T19:15:15.416Z,10.10
2019-05-10T19:19:18.490Z,10.65
2019-05-10T19:23:23.097Z,8.03
2019-05-10T19:27:27.660Z,5.25
2019-05-10T19:31:38.214Z,5.78
2019-05-10T19:39:42.594Z,7.30
2019-05-10T19:43:50.031Z,5.20
2019-05-10T19:51:58.746Z,5.15
2019-05-10T19:56:04.162Z,9.60
2019-05-10T20:00:09.441Z,8.55
2019-05-10T20:04:13.970Z,8.35
2019-05-10T20:08:18.585Z,7.25
2019-05-10T20:12:24.253Z,8.60
2019-05-10T20:16:28.801Z,8.50
2019-05-10T20:20:33.341Z,7.70
2019-05-10T20:24:37.881Z,10.45
2019-05-10T20:28:42.434Z,8.35
2019-05-10T20:32:46.969Z,10.60
2019-05-10T20:36:51.574Z,8.05
2019-05-10T20:40:56.114Z,10.48
2019-05-10T20:45:07.268Z,9.28
2019-05-10T20:49:06.898Z,5.83
2019-05-10T20:53:11.425Z,10.43
2019-05-10T20:57:17.726Z,8.05
2019-05-10T21:01:22.254Z,5.97
2019-05-10T21:05:26.793Z,6.72
2019-05-10T21:09:31.395Z,7.42
2019-05-10T21:13:35.901Z,5.40
2019-05-10T21:17:40.485Z,7.33
2019-05-10T21:21:45.038Z,9.53
2019-05-10T21:25:49.590Z,10.68
2019-05-10T21:29:54.134Z,9.95
2019-05-10T21:34:09.146Z,6.58
2019-05-10T21:42:08.548Z,5.10
2019-05-10T21:46:13.082Z,7.00
2019-05-10T21:50:17.631Z,7.10
2019-05-10T21:54:22.268Z,5.47
2019-05-10T21:58:26.797Z,3.40
2019-05-10T22:02:31.337Z,3.30
2019-05-10T22:06:35.870Z,4.62
2019-05-10T22:10:40.449Z,3.35
2019-05-10T22:14:44.978Z,5.75
2019-05-10T22:18:51.438Z,3.12
2019-05-10T22:26:59.851Z,4.45
2019-05-10T22:31:05.109Z,3.15
2019-05-10T22:35:11.483Z,3.20
2019-05-10T22:39:16.032Z,4.50
2019-05-10T22:43:20.621Z,2.90
2019-05-10T22:47:25.621Z,3.17
2019-05-10T22:51:30.361Z,2.43
2019-05-10T22:55:34.897Z,2.40
2019-05-10T22:59:39.408Z,3.80
2019-05-10T23:03:43.960Z,2.67
2019-05-10T23:07:48.485Z,2.52
2019-05-10T23:11:53.023Z,2.55
2019-05-10T23:15:58.335Z,2.77
2019-05-10T23:20:02.920Z,2.37
2019-05-10T23:24:07.455Z,2.27
2019-05-10T23:28:11.982Z,2.10
2019-05-10T23:32:16.514Z,2.47
2019-05-10T23:36:21.046Z,2.30
2019-05-10T23:40:25.566Z,2.58
2019-05-10T23:44:30.104Z,2.42
2019-05-10T23:48:34.637Z,2.22
2019-05-10T23:52:39.175Z,3.00
2019-05-10T23:56:43.763Z,1.98
